createdAt,value
2018-12-31T00:01:43.407Z,16.27
2018-12-31T00:04:12.051Z,15.77
2018-12-31T00:06:40.590Z,17.00
2018-12-31T00:09:09.129Z,16.77
2018-12-31T00:11:37.755Z,16.53
2018-12-31T00:14:06.281Z,15.80
2018-12-31T00:16:34.883Z,15.87
2018-12-31T00:19:03.423Z,16.80
2018-12-31T00:21:31.947Z,16.43
2018-12-31T00:24:00.503Z,16.97
2018-12-31T00:26:29.045Z,16.07
2018-12-31T00:28:57.697Z,18.43
2018-12-31T00:31:26.215Z,16.57
2018-12-31T00:33:54.737Z,17.90
2018-12-31T00:36:23.253Z,18.37
2018-12-31T00:38:51.777Z,17.20
2018-12-31T00:41:20.311Z,16.53
2018-12-31T00:43:48.831Z,19.87
2018-12-31T00:46:17.364Z,18.03
2018-12-31T00:48:45.891Z,16.53
2018-12-31T00:51:14.413Z,18.40
2018-12-31T00:53:42.928Z,16.33
2018-12-31T00:56:11.453Z,16.20
2018-12-31T00:58:39.993Z,16.07
2018-12-31T01:01:08.529Z,17.17
2018-12-31T01:03:37.051Z,16.07
2018-12-31T01:06:05.570Z,17.93
2018-12-31T01:08:34.171Z,16.03
2018-12-31T01:11:02.707Z,16.40
2018-12-31T01:13:31.189Z,16.20
2018-12-31T01:15:59.729Z,15.87
2018-12-31T01:18:28.247Z,16.07
2018-12-31T01:20:56.760Z,17.67
2018-12-31T01:23:25.291Z,16.77
2018-12-31T01:25:53.795Z,15.60
2018-12-31T01:28:22.359Z,16.30
2018-12-31T01:30:50.899Z,19.40
2018-12-31T01:33:19.435Z,17.23
2018-12-31T01:35:48.014Z,32.67
2018-12-31T01:38:16.489Z,19.17
2018-12-31T01:40:45.018Z,18.83
2018-12-31T01:43:13.534Z,18.83
2018-12-31T01:45:42.144Z,19.70
2018-12-31T01:48:10.666Z,18.37
2018-12-31T01:50:39.202Z,26.97
2018-12-31T01:53:07.732Z,21.57
2018-12-31T01:55:36.252Z,20.10
2018-12-31T01:58:04.808Z,25.07
2018-12-31T02:00:33.338Z,18.93
2018-12-31T02:03:01.860Z,19.10
2018-12-31T02:05:30.471Z,19.13
2018-12-31T02:07:58.970Z,16.47
2018-12-31T02:10:27.471Z,16.90
2018-12-31T02:12:56.014Z,18.60
2018-12-31T02:15:24.552Z,21.13
2018-12-31T02:17:53.082Z,18.73
2018-12-31T02:20:21.613Z,16.83
2018-12-31T02:22:50.140Z,16.07
2018-12-31T02:25:18.627Z,15.60
2018-12-31T02:27:47.123Z,25.53
2018-12-31T02:30:15.655Z,17.40
2018-12-31T02:32:44.186Z,15.23
2018-12-31T02:35:12.706Z,14.43
2018-12-31T02:37:41.232Z,15.40
2018-12-31T02:40:09.750Z,15.10
2018-12-31T02:42:38.260Z,14.33
2018-12-31T02:45:06.927Z,14.37
2018-12-31T02:47:35.438Z,14.53
2018-12-31T02:50:04.083Z,13.67
2018-12-31T02:52:32.599Z,15.33
2018-12-31T02:55:01.128Z,13.97
2018-12-31T02:57:29.722Z,14.50
2018-12-31T02:59:59.162Z,13.27
2018-12-31T03:02:27.735Z,13.07
2018-12-31T03:04:56.260Z,12.73
2018-12-31T03:07:24.799Z,13.73
2018-12-31T03:09:53.318Z,13.30
2018-12-31T03:12:21.862Z,16.00
2018-12-31T03:14:50.367Z,12.73
2018-12-31T03:17:18.908Z,15.13
2018-12-31T03:19:47.451Z,13.20
2018-12-31T03:22:15.976Z,14.47
2018-12-31T03:24:44.525Z,13.67
2018-12-31T03:27:13.031Z,12.23
2018-12-31T03:29:41.591Z,14.17
2018-12-31T03:32:10.145Z,13.57
2018-12-31T03:34:38.723Z,13.93
2018-12-31T03:37:07.754Z,14.07
2018-12-31T03:39:36.342Z,14.03
2018-12-31T03:42:04.908Z,20.10
2018-12-31T03:44:33.419Z,15.97
2018-12-31T03:47:01.937Z,17.70
2018-12-31T03:49:30.527Z,19.07
2018-12-31T03:51:59.045Z,18.07
2018-12-31T03:54:27.641Z,19.33
2018-12-31T03:56:56.158Z,18.23
2018-12-31T03:59:24.689Z,18.00
2018-12-31T04:01:53.267Z,17.37
2018-12-31T04:04:21.917Z,16.67
2018-12-31T04:06:50.453Z,22.23
2018-12-31T04:09:18.971Z,21.67
2018-12-31T04:11:47.520Z,23.23
2018-12-31T04:14:16.044Z,25.03
2018-12-31T04:16:44.560Z,20.63
2018-12-31T04:19:13.015Z,19.63
2018-12-31T04:21:41.523Z,20.07
2018-12-31T04:24:10.127Z,24.57
2018-12-31T04:26:38.648Z,24.37
2018-12-31T04:29:07.168Z,18.07
2018-12-31T04:31:35.692Z,19.23
2018-12-31T04:34:04.212Z,17.90
2018-12-31T04:36:32.742Z,17.63
2018-12-31T04:39:01.265Z,23.23
2018-12-31T04:41:29.791Z,25.60
2018-12-31T04:43:58.299Z,19.70
2018-12-31T04:46:26.847Z,21.27
2018-12-31T04:48:55.283Z,20.63
2018-12-31T04:51:23.875Z,24.40
2018-12-31T04:53:52.415Z,20.03
2018-12-31T04:56:20.923Z,19.37
2018-12-31T04:58:49.466Z,22.17
2018-12-31T05:01:17.971Z,19.60
2018-12-31T05:03:46.483Z,17.57
2018-12-31T05:06:15.012Z,21.07
2018-12-31T05:08:43.531Z,20.30
2018-12-31T05:11:12.071Z,15.90
2018-12-31T05:13:40.569Z,18.13
2018-12-31T05:16:09.111Z,18.20
2018-12-31T05:18:37.649Z,15.33
2018-12-31T05:21:06.164Z,30.03
2018-12-31T05:23:34.696Z,21.70
2018-12-31T05:26:03.209Z,15.80
2018-12-31T05:28:31.702Z,18.67
2018-12-31T05:31:00.152Z,15.27
2018-12-31T05:33:28.714Z,15.80
2018-12-31T05:35:57.209Z,20.87
2018-12-31T05:38:25.804Z,18.40
2018-12-31T05:40:54.310Z,16.93
2018-12-31T05:43:22.829Z,17.00
2018-12-31T05:45:51.351Z,15.43
2018-12-31T05:48:19.846Z,18.40
2018-12-31T05:50:48.388Z,15.07
2018-12-31T05:53:16.989Z,14.80
2018-12-31T05:55:45.502Z,15.63
2018-12-31T05:58:13.950Z,17.13
2018-12-31T06:00:42.481Z,18.13
2018-12-31T06:03:11.077Z,22.17
2018-12-31T06:05:39.594Z,14.53
2018-12-31T06:08:08.124Z,24.83
2018-12-31T06:10:36.668Z,14.37
2018-12-31T06:13:05.180Z,24.77
2018-12-31T06:15:33.702Z,14.43
2018-12-31T06:18:02.228Z,17.77
2018-12-31T06:20:30.770Z,17.20
2018-12-31T06:22:59.274Z,17.50
2018-12-31T06:25:27.821Z,13.83
2018-12-31T06:27:56.348Z,15.70
2018-12-31T06:30:24.867Z,22.27
2018-12-31T06:32:53.417Z,26.13
2018-12-31T06:35:22.012Z,15.27
2018-12-31T06:37:50.553Z,16.70
2018-12-31T06:40:19.080Z,22.50
2018-12-31T06:42:47.612Z,16.10
2018-12-31T06:45:16.128Z,15.43
2018-12-31T06:47:44.680Z,13.83
2018-12-31T06:50:13.178Z,14.13
2018-12-31T06:52:41.692Z,14.90
2018-12-31T06:55:10.210Z,13.17
2018-12-31T06:57:38.733Z,13.40
2018-12-31T07:00:07.280Z,14.00
2018-12-31T07:02:35.819Z,12.17
2018-12-31T07:05:04.322Z,12.83
2018-12-31T07:07:32.840Z,13.43
2018-12-31T07:10:01.393Z,12.30
2018-12-31T07:12:29.973Z,12.67
2018-12-31T07:14:58.581Z,12.30
2018-12-31T07:17:27.190Z,12.50
2018-12-31T07:19:55.778Z,12.50
2018-12-31T07:22:24.345Z,12.87
2018-12-31T07:24:52.926Z,11.87
2018-12-31T07:27:21.552Z,11.30
2018-12-31T07:29:50.186Z,11.20
2018-12-31T07:32:18.823Z,11.10
2018-12-31T07:34:47.362Z,11.27
2018-12-31T07:37:15.857Z,11.37
2018-12-31T07:39:44.377Z,11.33
2018-12-31T07:42:12.840Z,11.60
2018-12-31T07:44:41.349Z,11.57
2018-12-31T07:47:09.897Z,10.23
2018-12-31T07:49:38.410Z,11.03
2018-12-31T07:52:06.936Z,11.00
2018-12-31T07:54:35.442Z,11.47
2018-12-31T07:57:03.948Z,10.67
2018-12-31T07:59:32.549Z,11.67
2018-12-31T08:02:01.074Z,10.30
2018-12-31T08:04:29.596Z,11.67
2018-12-31T08:06:58.188Z,11.43
2018-12-31T08:09:26.642Z,10.43
2018-12-31T08:11:55.170Z,11.33
2018-12-31T08:14:23.758Z,13.07
2018-12-31T08:16:52.347Z,12.83
2018-12-31T08:19:20.872Z,12.63
2018-12-31T08:21:49.462Z,16.10
2018-12-31T08:24:18.020Z,12.90
2018-12-31T08:26:46.544Z,13.27
2018-12-31T08:29:14.970Z,14.40
2018-12-31T08:31:43.497Z,12.70
2018-12-31T08:34:12.024Z,15.83
2018-12-31T08:36:40.537Z,12.63
2018-12-31T08:39:09.102Z,12.80
2018-12-31T08:41:37.938Z,15.13
2018-12-31T08:44:06.527Z,13.17
2018-12-31T08:46:35.110Z,13.23
2018-12-31T08:49:03.710Z,19.50
2018-12-31T08:51:32.250Z,16.17
2018-12-31T08:54:00.742Z,14.93
2018-12-31T08:56:29.284Z,13.43
2018-12-31T08:58:57.776Z,19.70
2018-12-31T09:01:31.020Z,15.43
2018-12-31T09:04:00.691Z,14.20
2018-12-31T09:06:29.229Z,14.57
2018-12-31T09:08:57.732Z,14.70
2018-12-31T09:11:26.258Z,16.50
2018-12-31T09:13:54.794Z,15.20
2018-12-31T09:16:23.314Z,15.53
2018-12-31T09:18:51.836Z,17.17
2018-12-31T09:21:20.326Z,17.70
2018-12-31T09:23:49.353Z,20.37
2018-12-31T09:26:17.910Z,19.30
2018-12-31T09:28:46.496Z,18.83
2018-12-31T09:31:15.038Z,19.13
2018-12-31T09:33:45.243Z,18.40
2018-12-31T09:36:14.842Z,16.47
2018-12-31T09:38:43.452Z,16.47
2018-12-31T09:41:11.982Z,16.83
2018-12-31T09:43:40.492Z,14.60
2018-12-31T09:46:08.994Z,13.57
2018-12-31T09:48:37.618Z,12.13
2018-12-31T09:51:06.151Z,12.13
2018-12-31T09:53:34.693Z,12.57
2018-12-31T09:56:03.282Z,12.80
2018-12-31T09:58:31.806Z,12.03
2018-12-31T10:01:00.420Z,11.03
2018-12-31T10:03:28.960Z,13.00
2018-12-31T10:05:57.499Z,13.13
2018-12-31T10:08:26.021Z,15.53
2018-12-31T10:10:54.523Z,11.73
2018-12-31T10:13:23.130Z,49.33
2018-12-31T10:15:51.657Z,23.67
2018-12-31T10:18:20.195Z,17.27
2018-12-31T10:20:48.714Z,14.93
2018-12-31T10:23:17.259Z,16.63
2018-12-31T10:25:45.773Z,15.73
2018-12-31T10:28:14.306Z,14.47
2018-12-31T10:30:42.834Z,17.53
2018-12-31T10:33:11.343Z,13.57
2018-12-31T10:35:39.884Z,15.13
2018-12-31T10:38:08.438Z,14.07
2018-12-31T10:40:36.978Z,15.97
2018-12-31T10:43:05.552Z,16.47
2018-12-31T10:45:34.062Z,13.80
2018-12-31T10:48:02.617Z,16.97
2018-12-31T10:50:31.113Z,16.37
2018-12-31T10:52:59.718Z,17.30
2018-12-31T10:55:28.305Z,16.43
2018-12-31T10:57:56.833Z,20.43
2018-12-31T11:00:25.343Z,15.73
2018-12-31T11:02:53.838Z,15.93
2018-12-31T11:05:22.352Z,15.63
2018-12-31T11:07:50.870Z,14.93
2018-12-31T11:10:19.399Z,17.63
2018-12-31T11:12:47.927Z,18.60
2018-12-31T11:15:16.463Z,19.20
2018-12-31T11:17:45.004Z,17.97
2018-12-31T11:20:13.520Z,17.90
2018-12-31T11:22:42.032Z,18.23
2018-12-31T11:25:10.561Z,17.87
2018-12-31T11:27:39.102Z,17.50
2018-12-31T11:30:07.983Z,18.53
2018-12-31T11:32:36.520Z,18.67
2018-12-31T11:35:05.082Z,18.00
2018-12-31T11:37:34.795Z,18.97
2018-12-31T11:40:03.696Z,17.00
2018-12-31T11:42:32.214Z,18.53
2018-12-31T11:45:00.778Z,16.73
2018-12-31T11:47:29.361Z,28.50
2018-12-31T11:49:59.638Z,16.90
2018-12-31T11:52:28.280Z,17.50
2018-12-31T11:54:56.821Z,17.97
2018-12-31T11:57:25.350Z,17.40
2018-12-31T11:59:53.839Z,16.60
2018-12-31T12:02:23.626Z,17.90
2018-12-31T12:04:52.356Z,17.07
2018-12-31T12:07:20.857Z,16.17
2018-12-31T12:09:49.377Z,16.10
2018-12-31T12:12:18.171Z,19.20
2018-12-31T12:14:46.725Z,16.57
2018-12-31T12:17:15.222Z,16.87
2018-12-31T12:19:43.737Z,16.23
2018-12-31T12:22:12.267Z,17.07
2018-12-31T12:24:40.793Z,17.33
2018-12-31T12:27:09.332Z,17.97
2018-12-31T12:29:37.842Z,19.13
2018-12-31T12:32:06.364Z,18.87
2018-12-31T12:34:34.906Z,19.00
2018-12-31T12:37:03.432Z,18.93
2018-12-31T12:39:31.979Z,18.00
2018-12-31T12:42:00.498Z,16.57
2018-12-31T12:44:29.035Z,17.50
2018-12-31T12:46:57.543Z,18.33
2018-12-31T12:49:26.093Z,18.17
2018-12-31T12:51:54.629Z,26.77
2018-12-31T12:54:23.158Z,93.03
2018-12-31T12:56:51.768Z,19.27
2018-12-31T12:59:20.364Z,17.10
2018-12-31T13:01:48.891Z,16.67
2018-12-31T13:04:17.590Z,16.90
2018-12-31T13:06:46.119Z,23.93
2018-12-31T13:09:14.709Z,20.17
2018-12-31T13:11:43.247Z,20.30
2018-12-31T13:14:12.250Z,18.77
2018-12-31T13:16:41.172Z,18.60
2018-12-31T13:19:09.769Z,19.57
2018-12-31T13:21:38.268Z,19.73
2018-12-31T13:24:06.913Z,18.77
2018-12-31T13:26:43.377Z,19.67
2018-12-31T13:29:05.855Z,19.53
2018-12-31T13:31:34.469Z,19.07
2018-12-31T13:34:03.083Z,170.17
2018-12-31T13:36:31.731Z,26.60
2018-12-31T13:39:00.295Z,21.27
2018-12-31T13:41:29.211Z,20.07
2018-12-31T13:43:57.829Z,20.70
2018-12-31T13:46:26.371Z,16.03
2018-12-31T13:48:54.927Z,14.37
2018-12-31T13:51:23.490Z,13.63
2018-12-31T13:53:52.502Z,14.00
2018-12-31T13:56:21.127Z,13.83
2018-12-31T13:58:49.725Z,15.47
2018-12-31T14:01:18.351Z,25.33
2018-12-31T14:03:46.886Z,16.53
2018-12-31T14:06:15.857Z,13.80
2018-12-31T14:08:44.679Z,13.90
2018-12-31T14:11:13.323Z,13.00
2018-12-31T14:13:41.862Z,16.80
2018-12-31T14:16:10.406Z,17.57
2018-12-31T14:18:39.219Z,17.87
2018-12-31T14:21:07.753Z,17.13
2018-12-31T14:23:36.422Z,18.60
2018-12-31T14:26:05.006Z,18.80
2018-12-31T14:28:33.587Z,19.83
2018-12-31T14:31:02.187Z,18.90
2018-12-31T14:33:30.747Z,20.83
2018-12-31T14:36:01.454Z,24.00
2018-12-31T14:38:30.011Z,22.80
2018-12-31T14:40:58.916Z,21.13
2018-12-31T14:43:27.850Z,110.63
2018-12-31T14:45:56.434Z,103.83
2018-12-31T14:48:24.999Z,20.30
2018-12-31T14:50:53.523Z,20.03
2018-12-31T14:53:22.064Z,17.77
2018-12-31T14:55:50.652Z,18.03
2018-12-31T14:58:19.236Z,16.97
2018-12-31T15:00:47.938Z,19.50
2018-12-31T15:03:16.576Z,24.60
2018-12-31T15:05:45.122Z,20.30
2018-12-31T15:08:13.677Z,17.67
2018-12-31T15:10:42.279Z,18.00
2018-12-31T15:13:10.912Z,19.43
2018-12-31T15:15:39.482Z,22.93
2018-12-31T15:18:08.123Z,22.17
2018-12-31T15:20:36.756Z,21.97
2018-12-31T15:23:05.305Z,19.47
2018-12-31T15:25:33.950Z,18.93
2018-12-31T15:28:02.762Z,17.97
2018-12-31T15:30:31.318Z,17.00
2018-12-31T15:33:00.057Z,15.47
2018-12-31T15:35:28.854Z,16.10
2018-12-31T15:37:57.566Z,16.33
2018-12-31T15:40:26.700Z,16.63
2018-12-31T15:42:55.252Z,16.43
2018-12-31T15:45:23.840Z,15.30
2018-12-31T15:47:52.685Z,15.30
2018-12-31T15:50:21.318Z,16.00
2018-12-31T15:52:49.930Z,16.90
2018-12-31T15:55:18.472Z,15.83
2018-12-31T16:03:13.163Z,9.57
2018-12-31T16:05:42.399Z,9.43
2018-12-31T16:08:12.122Z,10.23
2018-12-31T16:10:41.688Z,11.80
2018-12-31T16:13:10.889Z,13.10
2018-12-31T16:15:40.101Z,12.90
2018-12-31T16:18:09.232Z,12.63
2018-12-31T16:20:38.822Z,11.83
2018-12-31T16:23:08.014Z,12.17
2018-12-31T16:25:37.331Z,13.40
2018-12-31T16:28:07.401Z,16.00
2018-12-31T16:30:36.762Z,14.83
2018-12-31T16:33:06.526Z,16.10
2018-12-31T16:35:35.726Z,14.07
2018-12-31T16:38:04.834Z,14.77
2018-12-31T16:40:34.318Z,15.37
2018-12-31T16:43:03.523Z,18.77
2018-12-31T16:45:33.163Z,18.63
2018-12-31T16:48:02.350Z,17.50
2018-12-31T16:50:31.635Z,17.67
2018-12-31T16:53:00.814Z,19.77
2018-12-31T16:55:29.989Z,17.63
2018-12-31T16:57:59.500Z,16.97
2018-12-31T17:00:28.756Z,19.90
2018-12-31T17:02:57.935Z,31.80
2018-12-31T17:05:27.072Z,29.23
2018-12-31T17:07:56.256Z,37.83
2018-12-31T17:10:25.654Z,29.13
2018-12-31T17:12:54.757Z,22.30
2018-12-31T17:15:23.952Z,22.20
2018-12-31T17:17:53.127Z,27.57
2018-12-31T17:20:22.252Z,26.30
2018-12-31T17:22:51.842Z,27.47
2018-12-31T17:25:21.112Z,35.43
2018-12-31T17:27:50.220Z,26.27
2018-12-31T17:30:19.474Z,22.40
2018-12-31T17:32:48.582Z,25.27
2018-12-31T17:35:18.018Z,26.00
2018-12-31T17:37:47.154Z,32.87
2018-12-31T17:40:16.266Z,29.17
2018-12-31T17:42:45.386Z,29.33
2018-12-31T17:45:22.638Z,37.20
2018-12-31T17:47:45.530Z,27.13
2018-12-31T17:50:14.719Z,27.80
2018-12-31T17:52:43.827Z,27.00
2018-12-31T17:55:12.948Z,27.27
2018-12-31T17:57:42.042Z,26.77
2018-12-31T18:00:11.625Z,28.57
2018-12-31T18:02:40.735Z,31.17
2018-12-31T18:05:09.828Z,30.70
2018-12-31T18:07:39.026Z,26.47
2018-12-31T18:10:09.334Z,25.00
2018-12-31T18:12:38.826Z,27.63
2018-12-31T18:15:08.026Z,106.10
2018-12-31T18:17:37.171Z,51.40
2018-12-31T18:20:07.191Z,112.73
2018-12-31T18:22:36.380Z,55.87
2018-12-31T18:25:05.517Z,32.63
2018-12-31T18:27:34.687Z,33.13
2018-12-31T18:30:03.819Z,31.70
2018-12-31T18:32:32.927Z,36.23
2018-12-31T18:35:02.062Z,31.97
2018-12-31T18:37:31.162Z,32.03
2018-12-31T18:40:00.267Z,25.43
2018-12-31T18:42:29.395Z,29.53
2018-12-31T18:44:58.475Z,30.67
2018-12-31T18:47:27.597Z,31.67
2018-12-31T18:49:56.855Z,32.47
2018-12-31T18:52:26.086Z,48.60
2018-12-31T18:54:55.183Z,36.73
2018-12-31T18:57:24.271Z,36.40
2018-12-31T18:59:53.361Z,32.27
2018-12-31T19:02:22.739Z,41.70
2018-12-31T19:04:51.876Z,43.40
2018-12-31T19:07:20.956Z,38.97
2018-12-31T19:09:50.073Z,35.70
2018-12-31T19:12:19.187Z,35.57
2018-12-31T19:14:48.655Z,41.03
2018-12-31T19:17:17.741Z,31.67
2018-12-31T19:19:46.835Z,32.17
2018-12-31T19:22:15.958Z,30.73
2018-12-31T19:24:45.037Z,29.63
2018-12-31T19:27:14.424Z,28.70
2018-12-31T19:29:43.596Z,31.37
2018-12-31T19:32:12.769Z,32.17
2018-12-31T19:34:41.947Z,27.50
2018-12-31T19:37:11.111Z,28.13
2018-12-31T19:39:40.545Z,30.37
2018-12-31T19:42:09.791Z,29.40
2018-12-31T19:44:38.875Z,34.23
2018-12-31T19:47:08.039Z,30.33
2018-12-31T19:49:37.145Z,29.80
2018-12-31T19:52:06.269Z,29.63
2018-12-31T19:54:35.445Z,32.23
2018-12-31T19:57:04.585Z,28.80
2018-12-31T19:59:33.673Z,31.83
2018-12-31T20:02:02.777Z,43.47
2018-12-31T20:04:31.891Z,37.53
2018-12-31T20:07:01.454Z,32.53
2018-12-31T20:09:30.758Z,33.53
2018-12-31T20:11:59.847Z,33.10
2018-12-31T20:14:28.953Z,28.43
2018-12-31T20:16:58.044Z,37.03
2018-12-31T20:19:27.132Z,39.97
2018-12-31T20:21:56.326Z,38.47
2018-12-31T20:24:25.502Z,29.47
2018-12-31T20:26:54.595Z,33.33
2018-12-31T20:29:23.776Z,34.33
2018-12-31T20:31:53.150Z,38.77
2018-12-31T20:34:22.268Z,31.90
2018-12-31T20:36:51.499Z,38.93
2018-12-31T20:39:20.731Z,33.67
2018-12-31T20:41:49.881Z,51.70
2018-12-31T20:44:19.019Z,49.37
2018-12-31T20:46:48.183Z,40.07
2018-12-31T20:49:17.271Z,35.87
2018-12-31T20:51:46.417Z,35.77
2018-12-31T20:54:15.521Z,40.20
2018-12-31T20:56:44.628Z,41.07
2018-12-31T20:59:13.713Z,45.80
2018-12-31T21:01:42.860Z,39.53
2018-12-31T21:04:11.980Z,35.93
2018-12-31T21:06:41.113Z,38.30
2018-12-31T21:09:10.365Z,36.83
2018-12-31T21:11:39.929Z,35.33
2018-12-31T21:14:09.123Z,35.73
2018-12-31T21:16:38.249Z,37.03
2018-12-31T21:19:07.427Z,43.10
2018-12-31T21:21:36.556Z,37.17
2018-12-31T21:24:06.107Z,35.53
2018-12-31T21:26:35.325Z,43.40
2018-12-31T21:29:04.453Z,44.73
2018-12-31T21:31:33.582Z,39.10
2018-12-31T21:34:02.769Z,50.53
2018-12-31T21:36:32.240Z,39.10
2018-12-31T21:39:01.421Z,39.00
2018-12-31T21:41:30.523Z,39.53
2018-12-31T21:43:59.619Z,39.90
2018-12-31T21:46:28.767Z,40.37
2018-12-31T21:48:57.879Z,36.63
2018-12-31T21:51:27.009Z,42.67
2018-12-31T21:53:56.131Z,36.33
2018-12-31T21:56:25.215Z,36.33
2018-12-31T21:58:54.419Z,34.73
2018-12-31T22:01:23.502Z,34.60
2018-12-31T22:03:52.690Z,30.27
2018-12-31T22:06:21.855Z,34.37
2018-12-31T22:08:50.987Z,37.37
2018-12-31T22:11:20.109Z,37.90
2018-12-31T22:13:49.127Z,35.80
2018-12-31T22:16:18.581Z,47.13
2018-12-31T22:18:47.671Z,37.53
2018-12-31T22:21:16.758Z,41.93
2018-12-31T22:23:45.911Z,50.30
2018-12-31T22:26:15.023Z,138.17
2018-12-31T22:28:44.547Z,123.97
2018-12-31T22:31:13.691Z,46.00
2018-12-31T22:33:42.868Z,33.50
2018-12-31T22:36:12.010Z,32.73
2018-12-31T22:38:41.109Z,30.67
2018-12-31T22:41:10.597Z,33.57
2018-12-31T22:43:39.741Z,31.27
2018-12-31T22:46:08.851Z,36.47
2018-12-31T22:48:37.941Z,35.33
2018-12-31T22:51:07.137Z,31.40
2018-12-31T22:53:36.628Z,36.13
2018-12-31T22:56:05.805Z,34.63
2018-12-31T22:58:34.879Z,36.47
2018-12-31T23:01:04.293Z,33.33
2018-12-31T23:03:33.404Z,33.30
2018-12-31T23:06:03.073Z,38.80
2018-12-31T23:08:32.164Z,75.33
2018-12-31T23:11:01.710Z,187.17
2018-12-31T23:13:37.174Z,381.07
2018-12-31T23:16:06.662Z,355.97
2018-12-31T23:18:35.875Z,258.40
2018-12-31T23:21:04.893Z,223.33
2018-12-31T23:23:34.015Z,172.60
2018-12-31T23:26:03.607Z,143.10
2018-12-31T23:28:33.170Z,123.50
2018-12-31T23:31:02.345Z,129.37
2018-12-31T23:33:31.372Z,179.63
2018-12-31T23:36:00.558Z,190.27
2018-12-31T23:38:29.718Z,145.30
2018-12-31T23:40:58.771Z,128.87
2018-12-31T23:43:28.005Z,111.33
2018-12-31T23:45:57.132Z,94.87
2018-12-31T23:48:26.230Z,77.60
2018-12-31T23:50:55.362Z,56.07
2018-12-31T23:53:24.534Z,53.60
2018-12-31T23:55:53.629Z,47.40
2018-12-31T23:58:22.658Z,50.27
